Time;durP1;ratioP1;P1;durP2;ratioP2;P2;SDS_P1;SDS_P2;PMS_P1;PMS_P2;Temp;Humidity;BMP_temperature;BMP_pressure;BME280_temperature;BME280_humidity;BME280_pressure;Samples;Min_cycle;Max_cycle;Signal;HPM_P1;HPM_P2
2022/03/12 00:04:30;;;;;;;4.65;3.90;;;;;;;8.85;18.05;100424.00;10205066;28;20247;-85
2022/03/12 00:09:33;;;;;;;8.00;4.47;;;;;;;8.60;18.31;100434.13;10224054;28;20708;-84
2022/03/12 00:14:37;;;;;;;6.20;4.70;;;;;;;8.62;18.25;100431.78;10225399;28;20886;-83
2022/03/12 00:19:41;;;;;;;9.60;4.10;;;;;;;8.28;18.71;100438.25;10227451;28;20271;-82
2022/03/12 00:24:48;;;;;;;6.30;3.63;;;;;;;8.06;18.58;100440.38;10217436;28;20245;-82
2022/03/12 00:29:52;;;;;;;7.53;3.90;;;;;;;8.48;18.37;100435.94;10205128;29;20277;-82
2022/03/12 00:34:55;;;;;;;5.33;3.83;;;;;;;8.38;18.36;100439.94;10232285;28;20242;-82
2022/03/12 00:39:58;;;;;;;8.40;4.47;;;;;;;8.35;18.58;100437.78;10224075;28;20222;-82
2022/03/12 00:45:00;;;;;;;5.93;4.13;;;;;;;8.01;18.94;100443.38;10228180;28;20541;-82
2022/03/12 00:50:05;;;;;;;6.03;3.77;;;;;;;7.86;19.00;100441.84;10239142;28;20266;-82
2022/03/12 00:55:07;;;;;;;4.70;3.80;;;;;;;7.91;19.00;100444.50;10242273;28;20356;-82
2022/03/12 01:00:15;;;;;;;6.63;4.10;;;;;;;8.00;18.77;100436.91;10242120;28;20314;-86
2022/03/12 01:05:39;;;;;;;6.80;3.90;;;;;;;7.73;18.56;100432.38;10244737;28;20232;-88
2022/03/12 01:10:43;;;;;;;5.73;4.37;;;;;;;7.88;18.80;100436.72;10242370;28;20232;-83
2022/03/12 01:15:45;;;;;;;5.90;4.32;;;;;;;7.99;18.80;100440.06;10227260;28;20258;-82
2022/03/12 01:20:49;;;;;;;6.32;3.90;;;;;;;8.24;18.56;100447.72;10239610;28;20294;-82
2022/03/12 01:25:52;;;;;;;5.87;4.20;;;;;;;8.30;18.80;100443.56;10236169;28;20259;-83
2022/03/12 01:30:54;;;;;;;5.63;4.80;;;;;;;8.13;18.95;100449.19;10219591;28;20616;-84
2022/03/12 01:35:57;;;;;;;7.30;4.00;;;;;;;8.06;18.60;100451.66;10239643;28;20276;-84
2022/03/12 01:41:03;;;;;;;6.73;4.17;;;;;;;8.84;18.19;100452.50;10216653;28;20286;-82
2022/03/12 01:46:09;;;;;;;6.13;3.90;;;;;;;8.54;18.65;100452.34;10225253;28;20306;-83
2022/03/12 01:51:12;;;;;;;5.83;3.90;;;;;;;8.16;18.80;100457.78;10239274;28;20240;-83
2022/03/12 01:56:15;;;;;;;4.73;4.10;;;;;;;8.33;19.01;100457.00;10217878;28;20282;-84
2022/03/12 02:01:18;;;;;;;6.20;4.27;;;;;;;8.43;18.69;100467.91;10235883;28;20235;-82
2022/03/12 02:06:21;;;;;;;5.33;3.93;;;;;;;8.26;18.90;100459.47;10235658;28;20279;-82
2022/03/12 02:11:28;;;;;;;6.53;3.43;;;;;;;7.95;19.40;100466.03;10236880;28;20578;-82
2022/03/12 02:16:31;;;;;;;6.97;4.13;;;;;;;8.43;18.55;100456.66;10248316;28;21052;-83
2022/03/12 02:21:41;;;;;;;4.37;3.67;;;;;;;8.05;19.39;100469.69;10251394;28;20200;-82
2022/03/12 02:26:45;;;;;;;5.37;3.97;;;;;;;8.07;19.27;100473.03;10250658;28;20294;-84
2022/03/12 02:31:54;;;;;;;5.83;4.30;;;;;;;8.27;19.19;100472.41;10253485;28;20211;-83
2022/03/12 02:36:57;;;;;;;5.47;4.20;;;;;;;8.17;19.60;100481.16;10234812;28;20255;-88
2022/03/12 02:42:03;;;;;;;7.13;3.80;;;;;;;8.54;19.29;100480.50;10234397;28;20202;-82
2022/03/12 02:47:15;;;;;;;6.97;4.80;;;;;;;8.51;19.58;100478.38;10246899;28;20231;-84
2022/03/12 02:52:18;;;;;;;7.50;4.33;;;;;;;8.13;19.67;100489.44;10227157;28;20248;-83
2022/03/12 02:57:25;;;;;;;7.13;4.37;;;;;;;9.14;19.05;100476.03;10238022;28;20195;-83
2022/03/12 03:02:38;;;;;;;5.53;4.10;;;;;;;8.85;19.23;100480.38;10233058;28;20215;-87
2022/03/12 03:07:45;;;;;;;5.47;3.93;;;;;;;8.81;19.27;100487.00;10246059;28;20274;-83
2022/03/12 03:12:47;;;;;;;6.63;4.27;;;;;;;9.02;19.32;100502.09;10252152;28;20202;-84
2022/03/12 03:17:49;;;;;;;6.40;4.83;;;;;;;8.90;19.40;100508.41;10228684;28;20239;-81
2022/03/12 03:22:51;;;;;;;6.30;4.30;;;;;;;8.61;19.43;100520.31;10230039;28;20269;-85
2022/03/12 03:27:54;;;;;;;5.87;4.23;;;;;;;8.24;20.08;100520.94;10237956;28;20235;-83
2022/03/12 03:32:57;;;;;;;5.57;3.97;;;;;;;8.30;20.29;100513.97;10243520;28;20267;-86
2022/03/12 03:37:59;;;;;;;6.53;4.17;;;;;;;8.98;19.83;100515.19;10226161;28;20212;-83
2022/03/12 03:43:02;;;;;;;6.10;4.43;;;;;;;8.79;20.37;100523.19;10236986;28;20207;-83
2022/03/12 03:48:04;;;;;;;7.37;4.80;;;;;;;8.50;20.48;100518.16;10233821;28;20215;-81
2022/03/12 03:53:06;;;;;;;5.90;4.13;;;;;;;8.65;20.70;100521.31;10245737;28;20254;-81
2022/03/12 03:58:12;;;;;;;6.47;5.00;;;;;;;8.95;20.20;100525.16;10223734;28;20267;-81
2022/03/12 04:03:14;;;;;;;6.10;4.73;;;;;;;8.54;21.02;100536.88;10243441;28;20203;-83
2022/03/12 04:08:21;;;;;;;6.30;4.40;;;;;;;8.16;21.51;100547.06;10240535;28;20269;-83
2022/03/12 04:13:24;;;;;;;10.57;4.83;;;;;;;9.14;20.44;100544.53;10244462;28;20211;-82
2022/03/12 04:18:26;;;;;;;4.77;4.07;;;;;;;8.82;21.02;100540.25;10232896;28;20528;-84
2022/03/12 04:23:28;;;;;;;6.23;4.30;;;;;;;8.86;21.15;100549.69;10245811;28;20568;-84
2022/03/12 04:28:32;;;;;;;6.53;4.63;;;;;;;8.56;21.71;100551.47;10225785;28;20223;-82
2022/03/12 04:33:36;;;;;;;10.43;4.67;;;;;;;8.77;21.88;100556.50;10223991;28;20258;-82
2022/03/12 04:38:38;;;;;;;7.57;5.07;;;;;;;8.62;21.99;100560.59;10245211;28;20200;-82
2022/03/12 04:43:40;;;;;;;8.77;5.07;;;;;;;8.50;22.32;100549.16;10224488;28;20270;-84
2022/03/12 04:48:43;;;;;;;8.37;4.83;;;;;;;7.98;22.84;100546.22;10224837;28;20214;-84
2022/03/12 04:53:45;;;;;;;8.03;5.07;;;;;;;7.56;23.91;100545.66;10224779;29;20272;-83
2022/03/12 04:58:47;;;;;;;7.20;4.72;;;;;;;8.55;22.56;100548.97;10240739;28;20831;-81
2022/03/12 05:03:49;;;;;;;8.90;4.60;;;;;;;8.34;23.11;100562.88;10223811;28;20203;-83
2022/03/12 05:08:53;;;;;;;7.03;4.90;;;;;;;8.50;22.92;100564.06;10248712;28;20219;-82
2022/03/12 05:13:55;;;;;;;6.77;4.67;;;;;;;8.80;23.12;100567.09;10213554;28;20271;-82
2022/03/12 05:18:58;;;;;;;7.17;4.63;;;;;;;8.19;23.54;100560.50;10233360;29;20283;-83
2022/03/12 05:24:00;;;;;;;9.90;4.30;;;;;;;8.93;22.91;100569.75;10220785;29;20219;-83
2022/03/12 05:29:02;;;;;;;5.93;4.77;;;;;;;8.64;23.48;100570.41;10235640;28;20223;-82
2022/03/12 05:34:05;;;;;;;6.10;4.70;;;;;;;8.32;24.16;100579.28;10225811;29;20207;-83
2022/03/12 05:39:07;;;;;;;6.05;4.85;;;;;;;8.49;24.29;100575.66;10229803;29;20204;-82
2022/03/12 05:44:13;;;;;;;6.55;4.90;;;;;;;8.18;25.47;100575.75;10227474;29;20604;-83
2022/03/12 05:49:18;;;;;;;7.10;5.40;;;;;;;8.67;25.36;100574.53;10246532;29;20220;-84
2022/03/12 05:54:21;;;;;;;8.27;5.03;;;;;;;8.60;25.50;100575.03;10253511;29;20482;-82
2022/03/12 05:59:23;;;;;;;9.70;4.70;;;;;;;8.66;25.60;100578.53;10238664;29;20664;-84
2022/03/12 06:04:28;;;;;;;7.30;4.87;;;;;;;8.01;26.79;100592.59;10241647;29;20203;-82
2022/03/12 06:09:30;;;;;;;10.33;5.60;;;;;;;8.02;26.98;100588.59;10221308;29;20215;-82
2022/03/12 06:14:39;;;;;;;7.50;5.20;;;;;;;8.57;26.79;100581.31;10226449;29;20215;-82
2022/03/12 06:19:42;;;;;;;7.37;5.20;;;;;;;9.15;26.60;100599.81;10240628;29;20246;-84
2022/03/12 06:24:46;;;;;;;7.03;5.13;;;;;;;8.71;27.42;100611.38;10252109;28;20211;-82
2022/03/12 06:29:48;;;;;;;5.00;4.23;;;;;;;8.39;27.86;100613.44;10246156;29;20317;-82
2022/03/12 06:34:50;;;;;;;6.50;4.80;;;;;;;8.11;28.77;100620.47;10245495;29;20203;-82
2022/03/12 06:39:55;;;;;;;6.63;5.37;;;;;;;8.14;29.13;100622.63;10235731;28;20566;-81
2022/03/12 06:44:57;;;;;;;7.03;5.03;;;;;;;8.33;29.08;100634.44;10236188;28;20302;-83
2022/03/12 06:50:00;;;;;;;6.40;4.73;;;;;;;8.48;29.02;100641.63;10242454;29;20309;-82
2022/03/12 06:55:03;;;;;;;5.50;4.40;;;;;;;7.98;30.14;100636.31;10241025;29;20284;-84
2022/03/12 07:00:07;;;;;;;6.27;4.70;;;;;;;8.63;29.33;100641.19;10220450;29;20542;-86
2022/03/12 07:05:11;;;;;;;5.53;4.53;;;;;;;9.60;28.13;100636.13;10237896;29;20231;-82
2022/03/12 07:10:13;;;;;;;6.23;5.00;;;;;;;8.94;27.86;100652.34;10239760;28;20266;-82
2022/03/12 07:15:19;;;;;;;10.40;4.70;;;;;;;9.59;27.29;100646.56;10227065;29;20230;-83
2022/03/12 07:20:22;;;;;;;7.97;5.03;;;;;;;9.44;27.54;100649.06;10248383;29;20199;-83
2022/03/12 07:25:25;;;;;;;12.57;5.13;;;;;;;9.70;27.38;100655.56;10234693;29;20262;-88
2022/03/12 07:30:30;;;;;;;5.67;4.50;;;;;;;7.97;30.17;100662.78;10238861;29;20251;-83
2022/03/12 07:35:33;;;;;;;5.20;4.30;;;;;;;8.18;29.80;100665.88;10245063;29;20271;-90
2022/03/12 07:40:37;;;;;;;7.73;4.70;;;;;;;8.51;29.12;100658.72;10248880;28;20204;-87
2022/03/12 07:45:40;;;;;;;8.80;4.50;;;;;;;8.66;29.60;100663.88;10247750;29;20199;-85
2022/03/12 07:50:44;;;;;;;6.20;4.83;;;;;;;9.31;28.83;100667.84;10237026;28;20548;-86
2022/03/12 07:55:47;;;;;;;5.47;4.53;;;;;;;8.61;29.77;100672.50;10243331;28;20211;-82
2022/03/12 08:00:51;;;;;;;5.33;4.50;;;;;;;9.60;28.21;100678.47;10230932;29;20686;-82
2022/03/12 08:05:54;;;;;;;7.00;4.70;;;;;;;9.10;28.81;100676.09;10251399;29;20560;-84
2022/03/12 08:16:17;;;;;;;6.97;4.57;;;;;;;9.87;28.40;100669.63;10245593;29;20517;-83
2022/03/12 08:21:20;;;;;;;7.47;4.80;;;;;;;10.35;27.94;100668.47;10235428;29;20211;-82
2022/03/12 08:26:23;;;;;;;8.37;4.93;;;;;;;9.68;29.06;100666.34;10221655;29;20203;-83
2022/03/12 08:31:25;;;;;;;6.83;4.73;;;;;;;9.81;29.34;100659.69;10234261;28;20258;-90
2022/03/12 08:36:27;;;;;;;5.27;4.63;;;;;;;10.36;28.97;100667.28;10226228;28;20274;-87
2022/03/12 08:41:34;;;;;;;6.53;4.43;;;;;;;10.07;29.44;100680.22;10240879;29;20258;-84
2022/03/12 08:46:38;;;;;;;7.00;4.40;;;;;;;9.73;30.18;100698.03;10239694;29;20266;-83
2022/03/12 08:51:41;;;;;;;7.97;4.67;;;;;;;11.27;27.97;100703.38;10223007;29;20278;-92
2022/03/12 08:56:44;;;;;;;5.35;4.50;;;;;;;11.30;28.07;100705.56;10242208;28;20207;-92
2022/03/12 09:01:47;;;;;;;7.03;4.60;;;;;;;10.84;28.57;100702.84;10240682;28;20636;-83
2022/03/12 09:06:50;;;;;;;6.27;4.77;;;;;;;11.05;28.67;100698.06;10231963;28;20294;-83
2022/03/12 09:11:57;;;;;;;7.25;4.72;;;;;;;12.24;26.89;100699.38;10233872;28;20263;-82
2022/03/12 09:16:59;;;;;;;6.90;5.03;;;;;;;12.03;27.76;100720.09;10248281;28;20322;-87
2022/03/12 09:22:03;;;;;;;6.17;4.23;;;;;;;13.77;26.44;100725.06;10247612;28;20196;-84
2022/03/12 09:27:06;;;;;;;5.13;4.53;;;;;;;12.93;27.91;100722.03;10234857;28;20195;-84
2022/03/12 09:32:09;;;;;;;6.37;4.80;;;;;;;12.15;28.82;100730.66;10234562;28;20246;-86
2022/03/12 09:37:11;;;;;;;5.95;4.70;;;;;;;13.27;27.72;100732.06;10252660;28;20267;-82
2022/03/12 09:42:14;;;;;;;6.97;5.13;;;;;;;12.49;28.62;100735.91;10230796;28;20199;-82
2022/03/12 09:47:18;;;;;;;5.47;4.40;;;;;;;13.83;27.04;100737.84;10250189;28;20623;-83
2022/03/12 09:52:20;;;;;;;4.88;4.03;;;;;;;13.30;28.02;100739.03;10233978;29;20211;-86
2022/03/12 09:57:23;;;;;;;4.97;4.10;;;;;;;12.96;28.20;100741.19;10243617;28;20207;-84
2022/03/12 10:02:25;;;;;;;5.73;4.57;;;;;;;13.66;27.93;100750.34;10256640;28;21085;-83
2022/03/12 10:07:27;;;;;;;5.20;4.50;;;;;;;14.58;26.32;100752.16;10243802;29;20207;-84
2022/03/12 10:12:30;;;;;;;5.43;4.60;;;;;;;14.74;26.51;100741.63;10249011;29;20584;-95
2022/03/12 10:17:33;;;;;;;7.22;4.53;;;;;;;14.47;26.50;100759.59;10242741;28;20275;-84
2022/03/12 10:22:36;;;;;;;6.45;4.53;;;;;;;15.20;25.68;100756.22;10245559;29;20453;-91
2022/03/12 10:27:39;;;;;;;6.77;4.57;;;;;;;14.95;25.50;100750.69;10254107;29;20332;-91
2022/03/12 10:32:47;;;;;;;8.60;4.65;;;;;;;13.93;26.89;100757.22;10256545;29;20207;-82
2022/03/12 10:37:50;;;;;;;5.60;4.57;;;;;;;14.88;26.07;100744.84;10226723;28;20273;-82
2022/03/12 10:42:54;;;;;;;6.32;4.28;;;;;;;14.01;26.89;100752.56;10227576;29;20747;-89
2022/03/12 10:48:03;;;;;;;7.15;4.95;;;;;;;13.76;26.90;100754.69;10238276;28;20250;-82
2022/03/12 10:53:06;;;;;;;6.40;4.73;;;;;;;13.57;27.63;100758.97;10241965;28;20565;-82
2022/03/12 10:58:15;;;;;;;5.72;4.18;;;;;;;14.72;26.18;100744.00;10225492;29;20277;-84
2022/03/12 11:03:33;;;;;;;6.38;5.38;;;;;;;14.08;26.47;100738.56;10228944;29;20242;-82
2022/03/12 11:08:35;;;;;;;5.47;4.72;;;;;;;14.90;26.17;100739.56;10245337;28;20242;-84
2022/03/12 11:13:44;;;;;;;6.90;4.68;;;;;;;14.34;26.33;100752.31;10242415;29;20281;-84
2022/03/12 11:18:57;;;;;;;5.70;4.70;;;;;;;14.55;26.16;100747.22;10239283;29;20254;-85
2022/03/12 11:23:59;;;;;;;7.53;4.73;;;;;;;14.53;26.25;100744.72;10225286;28;20243;-83
2022/03/12 11:29:04;;;;;;;6.38;4.78;;;;;;;15.72;25.04;100733.84;10239756;28;20313;-85
2022/03/12 11:34:20;;;;;;;5.75;5.10;;;;;;;15.75;24.72;100731.44;10224773;28;20267;-82
2022/03/12 11:39:50;;;;;;;5.60;4.15;;;;;;;14.96;25.37;100729.56;10253296;28;20273;-82
2022/03/12 11:44:58;;;;;;;7.00;4.95;;;;;;;15.47;25.54;100718.19;10241992;28;20251;-83
2022/03/12 11:50:03;;;;;;;6.55;4.63;;;;;;;14.99;25.61;100717.47;10248031;28;20258;-83
2022/03/12 11:55:14;;;;;;;7.15;4.68;;;;;;;15.68;24.94;100710.09;10223803;28;20603;-82
2022/03/12 12:00:26;;;;;;;4.78;3.78;;;;;;;15.30;25.65;100716.56;10243531;28;20226;-82
2022/03/12 12:05:29;;;;;;;7.07;4.38;;;;;;;14.00;27.08;100709.09;10261832;28;20246;-82
2022/03/12 12:10:39;;;;;;;6.30;5.00;;;;;;;16.24;24.60;100697.41;10242093;28;20322;-82
2022/03/12 12:15:41;;;;;;;5.00;4.40;;;;;;;16.07;24.61;100698.69;10222096;29;20286;-83
2022/03/12 12:20:44;;;;;;;7.57;4.70;;;;;;;15.49;25.52;100695.84;10238072;29;20263;-84
2022/03/12 12:25:46;;;;;;;7.72;4.25;;;;;;;15.97;24.70;100691.59;10219531;29;20211;-84
2022/03/12 12:30:53;;;;;;;5.18;4.47;;;;;;;15.63;25.03;100693.31;10219794;29;20235;-83
2022/03/12 12:36:15;;;;;;;6.40;5.03;;;;;;;15.98;24.30;100689.56;10241809;28;20298;-87
2022/03/12 12:41:17;;;;;;;8.00;4.32;;;;;;;16.65;24.01;100687.16;10243817;28;20266;-82
2022/03/12 12:46:19;;;;;;;5.13;4.35;;;;;;;16.49;24.42;100692.19;10253732;28;20349;-85
2022/03/12 12:51:29;;;;;;;4.93;4.43;;;;;;;15.12;26.01;100680.34;10273098;28;20246;-94
2022/03/12 12:56:35;;;;;;;5.57;4.43;;;;;;;15.92;24.80;100679.69;10266604;28;20531;-91
2022/03/12 13:01:41;;;;;;;6.28;4.32;;;;;;;15.99;24.81;100663.53;10254836;28;20475;-92
2022/03/12 13:06:47;;;;;;;7.90;5.03;;;;;;;16.06;24.49;100657.97;10258014;28;20233;-92
2022/03/12 13:11:52;;;;;;;6.93;4.40;;;;;;;15.73;25.22;100658.53;10237783;29;20278;-91
2022/03/12 13:17:00;;;;;;;7.63;5.53;;;;;;;16.10;24.66;100658.00;10259318;28;20243;-94
2022/03/12 13:22:08;;;;;;;5.77;4.40;;;;;;;15.50;25.75;100662.47;10257000;28;20227;-86
2022/03/12 13:27:25;;;;;;;5.25;4.60;;;;;;;15.16;26.38;100655.59;10260075;28;20219;-89
2022/03/12 13:32:29;;;;;;;5.47;4.82;;;;;;;15.78;25.58;100648.03;10255282;28;20249;-90
2022/03/12 13:37:33;;;;;;;7.93;5.00;;;;;;;16.54;24.46;100649.06;10242258;28;20646;-93
2022/03/12 13:42:46;;;;;;;6.93;4.15;;;;;;;16.32;24.44;100648.66;10264188;28;20237;-90
2022/03/12 13:47:55;;;;;;;7.25;4.68;;;;;;;16.65;24.41;100650.06;10258573;28;20245;-89
2022/03/12 13:53:03;;;;;;;5.95;5.07;;;;;;;16.50;24.91;100654.69;10277740;28;20265;-93
2022/03/12 13:58:06;;;;;;;7.57;4.85;;;;;;;16.35;24.87;100653.59;10242363;28;20233;-90
2022/03/12 14:03:11;;;;;;;5.88;4.85;;;;;;;17.41;23.71;100653.66;10264002;28;20318;-87
2022/03/12 14:08:19;;;;;;;8.02;5.13;;;;;;;16.43;24.51;100655.41;10255405;28;20207;-89
2022/03/12 14:13:22;;;;;;;5.50;4.85;;;;;;;15.75;25.68;100657.34;10266913;28;20293;-90
2022/03/12 14:18:25;;;;;;;6.65;4.15;;;;;;;15.82;25.67;100664.00;10265623;28;20234;-88
2022/03/12 14:23:29;;;;;;;6.50;4.90;;;;;;;16.10;25.23;100660.88;10269988;28;20202;-89
2022/03/12 14:28:32;;;;;;;6.85;4.50;;;;;;;15.27;26.14;100668.09;10276389;28;20258;-90
2022/03/12 14:33:37;;;;;;;7.93;5.10;;;;;;;15.40;26.02;100663.91;10260195;28;20308;-88
2022/03/12 14:38:40;;;;;;;6.30;4.88;;;;;;;15.63;25.61;100664.81;10251869;28;20210;-88
2022/03/12 14:43:44;;;;;;;6.00;4.38;;;;;;;16.74;24.37;100651.44;10230084;29;20513;-92
2022/03/12 14:48:49;;;;;;;5.28;4.47;;;;;;;16.83;24.95;100650.34;10241702;29;20669;-85
2022/03/12 14:53:51;;;;;;;5.45;4.30;;;;;;;16.20;25.08;100640.28;10240453;29;20219;-90
2022/03/12 14:58:53;;;;;;;4.95;3.70;;;;;;;15.46;26.08;100648.16;10212623;29;20271;-92
2022/03/12 15:03:58;;;;;;;7.93;4.47;;;;;;;16.02;25.16;100650.53;10210160;29;20215;-88
2022/03/12 15:09:08;;;;;;;4.13;3.10;;;;;;;15.99;25.32;100649.25;10251504;28;20226;-88
2022/03/12 15:14:13;;;;;;;3.95;3.15;;;;;;;15.98;25.24;100643.94;10225279;28;20231;-89
2022/03/12 15:19:15;;;;;;;3.78;2.65;;;;;;;16.96;24.68;100644.03;10261921;28;20227;-90
2022/03/12 15:24:20;;;;;;;3.63;3.15;;;;;;;16.76;24.60;100639.63;10236565;28;20208;-93
2022/03/12 15:29:29;;;;;;;4.68;2.63;;;;;;;16.69;24.46;100633.81;10239091;28;20230;-93
2022/03/12 15:34:34;;;;;;;6.10;3.10;;;;;;;17.16;24.31;100635.34;10235341;28;20212;-92
2022/03/12 15:39:36;;;;;;;3.80;2.75;;;;;;;17.46;24.07;100633.34;10255349;28;20203;-92
2022/03/12 15:44:39;;;;;;;4.75;3.28;;;;;;;17.02;24.07;100625.34;10234111;28;20556;-89
2022/03/12 15:49:43;;;;;;;5.43;3.28;;;;;;;17.55;23.57;100625.28;10252297;28;20246;-92
2022/03/12 15:54:47;;;;;;;5.43;3.63;;;;;;;17.60;23.70;100616.34;10220335;28;20211;-90
2022/03/12 15:59:50;;;;;;;5.00;3.63;;;;;;;17.83;23.51;100619.91;10225972;28;20247;-90
2022/03/12 16:04:53;;;;;;;6.47;4.38;;;;;;;16.93;24.09;100616.25;10237329;29;20544;-93
2022/03/12 16:09:57;;;;;;;6.75;3.70;;;;;;;15.86;25.82;100618.44;10246106;29;20230;-94
2022/03/12 16:15:00;;;;;;;5.93;3.95;;;;;;;15.72;25.94;100627.53;10241346;28;20306;-89
2022/03/12 16:20:13;;;;;;;4.07;2.85;;;;;;;15.60;25.71;100616.28;10245284;28;20211;-94
2022/03/12 16:25:18;;;;;;;5.32;3.67;;;;;;;16.57;24.84;100611.19;10242386;29;20235;-94
2022/03/12 16:30:25;;;;;;;5.80;3.40;;;;;;;16.15;25.65;100614.94;10242950;29;20219;-90
2022/03/12 16:35:29;;;;;;;4.57;3.00;;;;;;;16.24;25.13;100606.09;10225383;28;20274;-93
2022/03/12 16:40:37;;;;;;;2.90;2.70;;;;;;;16.30;24.82;100593.19;10222991;29;20203;-95
2022/03/12 16:45:44;;;;;;;4.72;2.30;;;;;;;16.15;24.97;100591.28;10221662;29;20206;-95
2022/03/12 16:50:47;;;;;;;3.05;2.47;;;;;;;15.80;25.30;100585.75;10232620;28;20227;-95
2022/03/12 16:55:49;;;;;;;2.50;2.28;;;;;;;16.23;25.01;100588.16;10223162;29;20271;-93
2022/03/12 17:00:52;;;;;;;3.17;2.50;;;;;;;16.38;24.72;100595.78;10234583;29;20211;-94
2022/03/12 17:05:54;;;;;;;4.72;2.70;;;;;;;16.83;24.70;100594.06;10229647;29;20901;-93
2022/03/12 17:10:59;;;;;;;4.00;2.97;;;;;;;15.87;25.48;100597.28;10232677;28;20266;-94
2022/03/12 17:16:05;;;;;;;4.38;2.75;;;;;;;16.42;25.05;100602.41;10224802;29;20243;-91
2022/03/12 17:21:09;;;;;;;4.93;2.70;;;;;;;16.45;24.83;100602.84;10235503;29;20207;-90
2022/03/12 17:26:14;;;;;;;5.53;3.27;;;;;;;16.41;25.01;100600.75;10201300;29;20215;-90
2022/03/12 17:31:17;;;;;;;6.28;4.00;;;;;;;15.78;25.44;100608.13;10238414;28;20661;-92
2022/03/12 17:36:20;;;;;;;6.32;4.15;;;;;;;16.19;24.85;100590.16;10222764;28;20251;-90
2022/03/12 17:41:28;;;;;;;5.15;4.30;;;;;;;16.24;25.26;100597.56;10220564;29;20235;-87
2022/03/12 17:46:30;;;;;;;6.50;4.40;;;;;;;16.11;24.90;100596.91;10245139;28;20242;-89
2022/03/12 17:51:35;;;;;;;8.80;5.45;;;;;;;15.52;25.47;100603.94;10228591;28;20369;-91
2022/03/12 17:56:38;;;;;;;4.90;3.63;;;;;;;15.84;25.12;100590.31;10249504;28;20219;-90
2022/03/12 18:01:42;;;;;;;5.95;4.72;;;;;;;15.64;25.49;100589.50;10225322;28;20600;-92
2022/03/12 18:06:46;;;;;;;4.90;4.40;;;;;;;15.39;25.62;100596.72;10241847;28;20616;-92
2022/03/12 18:11:49;;;;;;;6.45;4.70;;;;;;;15.72;25.32;100587.63;10248044;28;20322;-88
2022/03/12 18:16:51;;;;;;;6.93;4.77;;;;;;;15.45;25.77;100577.28;10226181;29;20313;-88
2022/03/12 18:21:54;;;;;;;4.95;4.05;;;;;;;15.78;25.07;100563.34;10218982;28;20298;-90
2022/03/12 18:26:59;;;;;;;6.65;4.47;;;;;;;15.28;26.20;100570.88;10227113;28;20243;-89
2022/03/12 18:32:05;;;;;;;7.57;4.68;;;;;;;15.02;26.46;100574.38;10235425;28;20335;-88
2022/03/12 18:37:08;;;;;;;8.77;5.72;;;;;;;15.03;26.42;100576.00;10243801;28;20279;-88
2022/03/12 18:42:11;;;;;;;8.38;6.25;;;;;;;14.77;26.73;100575.00;10237242;29;20242;-89
2022/03/12 18:47:17;;;;;;;9.18;6.68;;;;;;;14.78;26.46;100573.78;10217123;28;20212;-89
2022/03/12 18:52:20;;;;;;;8.33;6.40;;;;;;;14.87;26.36;100561.00;10233188;28;21241;-92
2022/03/12 18:57:24;;;;;;;10.98;5.32;;;;;;;14.40;26.80;100574.50;10217643;28;20235;-91
2022/03/12 19:02:26;;;;;;;9.63;5.73;;;;;;;14.44;27.01;100572.56;10243855;28;20612;-87
2022/03/12 19:07:29;;;;;;;8.17;5.27;;;;;;;14.41;27.02;100571.28;10232438;28;20702;-89
2022/03/12 19:12:33;;;;;;;10.07;5.93;;;;;;;14.56;26.60;100569.63;10215092;28;20270;-90
2022/03/12 19:17:35;;;;;;;18.98;6.35;;;;;;;14.05;27.55;100575.22;10241341;28;20262;-90
2022/03/12 19:22:37;;;;;;;9.07;6.43;;;;;;;14.12;27.59;100581.09;10221938;28;20230;-90
2022/03/12 19:27:40;;;;;;;8.93;6.13;;;;;;;14.13;27.29;100579.91;10210458;28;20243;-86
2022/03/12 19:32:42;;;;;;;8.50;5.83;;;;;;;14.18;27.11;100585.31;10215873;28;20732;-86
2022/03/12 19:37:45;;;;;;;8.23;6.27;;;;;;;14.12;27.09;100585.97;10224766;28;20963;-86
2022/03/12 19:42:50;;;;;;;11.00;6.70;;;;;;;14.20;26.77;100593.50;10231414;28;20227;-88
2022/03/12 19:48:00;;;;;;;10.37;6.67;;;;;;;13.99;27.14;100602.25;10216899;28;20270;-87
2022/03/12 19:53:03;;;;;;;10.23;6.90;;;;;;;13.78;27.16;100610.22;10226548;28;20270;-87
2022/03/12 19:58:06;;;;;;;9.37;7.13;;;;;;;13.54;27.53;100617.66;10234043;28;20235;-87
2022/03/12 20:03:09;;;;;;;7.30;5.90;;;;;;;13.29;27.97;100616.09;10206984;28;20315;-87
2022/03/12 20:08:12;;;;;;;11.20;6.27;;;;;;;13.20;28.05;100613.44;10214357;28;20238;-86
2022/03/12 20:13:15;;;;;;;10.73;6.90;;;;;;;12.92;27.80;100617.41;10235498;28;20266;-88
2022/03/12 20:18:22;;;;;;;9.52;7.13;;;;;;;13.00;27.96;100613.59;10217062;28;20317;-87
2022/03/12 20:23:26;;;;;;;10.00;6.37;;;;;;;13.15;27.71;100615.69;10211724;28;20243;-89
2022/03/12 20:28:28;;;;;;;7.25;6.03;;;;;;;12.52;28.69;100618.13;10219851;28;20242;-86
2022/03/12 20:33:32;;;;;;;7.97;6.10;;;;;;;13.29;27.68;100601.91;10220653;28;20239;-87
2022/03/12 20:38:34;;;;;;;9.17;6.47;;;;;;;12.87;28.03;100610.78;10220494;28;20297;-87
2022/03/12 20:43:37;;;;;;;6.97;5.80;;;;;;;12.77;28.03;100614.06;10213253;28;20293;-86
2022/03/12 20:48:41;;;;;;;8.90;6.65;;;;;;;10.78;30.32;100603.22;10221311;28;20243;-84
2022/03/12 20:53:46;;;;;;;9.73;6.78;;;;;;;11.12;29.63;100613.47;10209728;28;20262;-86
2022/03/12 20:58:51;;;;;;;11.30;7.25;;;;;;;11.65;28.83;100600.50;10235800;28;20632;-86
2022/03/12 21:03:54;;;;;;;10.48;7.53;;;;;;;11.35;29.14;100603.47;10234026;28;20552;-86
2022/03/12 21:08:56;;;;;;;9.93;7.57;;;;;;;11.12;29.22;100608.63;10226170;28;20236;-90
2022/03/12 21:13:58;;;;;;;10.10;7.00;;;;;;;11.33;28.73;100608.63;10247923;28;20235;-89
2022/03/12 21:19:01;;;;;;;15.83;8.53;;;;;;;11.05;28.91;100601.84;10255651;28;20243;-89
2022/03/12 21:24:04;;;;;;;9.90;7.10;;;;;;;10.97;29.00;100599.94;10243188;28;20204;-84
2022/03/12 21:29:09;;;;;;;11.57;7.93;;;;;;;11.40;28.70;100597.56;10236258;28;20262;-90
2022/03/12 21:34:11;;;;;;;9.67;7.07;;;;;;;10.73;29.59;100595.78;10234477;28;20532;-89
2022/03/12 21:39:14;;;;;;;10.73;7.47;;;;;;;11.16;28.40;100594.59;10238841;29;20274;-84
2022/03/12 21:44:16;;;;;;;8.30;6.83;;;;;;;10.28;29.61;100600.34;10227057;28;20596;-84
2022/03/12 21:49:19;;;;;;;9.37;6.80;;;;;;;11.12;28.74;100585.16;10224053;28;20254;-87
2022/03/12 21:54:24;;;;;;;10.17;7.37;;;;;;;10.86;28.93;100581.72;10258622;28;20251;-86
2022/03/12 21:59:27;;;;;;;13.20;7.43;;;;;;;10.79;28.90;100583.09;10235561;28;20219;-90
2022/03/12 22:04:30;;;;;;;11.32;7.13;;;;;;;11.33;27.94;100580.34;10238489;28;20998;-88
2022/03/12 22:09:32;;;;;;;10.50;6.77;;;;;;;11.87;27.36;100566.09;10269704;28;20237;-90
2022/03/12 22:14:36;;;;;;;8.35;6.78;;;;;;;11.70;27.67;100577.59;10235027;28;20270;-86
2022/03/12 22:19:42;;;;;;;9.17;6.80;;;;;;;11.24;27.99;100579.56;10247299;28;20243;-86
2022/03/12 22:24:46;;;;;;;9.23;6.27;;;;;;;12.04;27.22;100565.06;10249534;28;20234;-85
2022/03/12 22:29:48;;;;;;;9.43;7.47;;;;;;;11.67;27.40;100572.63;10242306;28;20247;-82
2022/03/12 22:34:51;;;;;;;9.47;6.67;;;;;;;11.03;28.63;100556.09;10237461;28;20282;-84
2022/03/12 22:39:54;;;;;;;10.80;8.33;;;;;;;10.93;28.19;100565.00;10240308;28;20227;-83
2022/03/12 22:44:59;;;;;;;11.60;7.33;;;;;;;11.35;27.85;100552.50;10230095;28;20223;-83
2022/03/12 22:50:03;;;;;;;13.23;7.43;;;;;;;11.94;27.31;100554.97;10227739;28;20367;-83
2022/03/12 22:55:08;;;;;;;8.10;6.63;;;;;;;11.85;26.98;100554.28;10247811;28;20795;-83
2022/03/12 23:00:42;;;;;;;11.37;7.17;;;;;;;11.71;26.66;100559.44;10224427;28;20239;-85
2022/03/12 23:11:06;;;;;;;9.00;7.13;;;;;;;11.97;26.47;100556.28;10229005;28;21059;-83
2022/03/12 23:16:08;;;;;;;8.83;6.57;;;;;;;11.82;26.88;100550.13;10228719;28;20654;-82
2022/03/12 23:21:13;;;;;;;8.90;6.33;;;;;;;11.96;26.27;100552.63;10246909;28;20367;-82
2022/03/12 23:26:16;;;;;;;8.23;6.57;;;;;;;12.43;25.98;100549.38;10230054;28;20243;-82
2022/03/12 23:31:18;;;;;;;8.00;6.20;;;;;;;11.74;26.73;100538.91;10246589;28;20298;-83
2022/03/12 23:36:20;;;;;;;10.23;6.13;;;;;;;11.68;26.55;100546.81;10238740;28;20675;-84